Time;durP1;ratioP1;P1;durP2;ratioP2;P2;SDS_P1;SDS_P2;PMS_P1;PMS_P2;Temp;Humidity;BMP_temperature;BMP_pressure;BME280_temperature;BME280_humidity;BME280_pressure;Samples;Min_cycle;Max_cycle;Signal;HPM_P1;HPM_P2
2022/11/10 00:01:09;;;;;;;4.47;1.27;;;;;;;10.55;100.00;99993.75;10481736;22;20048;-70
2022/11/10 00:06:29;;;;;;;1.98;0.77;;;;;;;10.82;100.00;100002.50;10501557;28;20045;-69
2022/11/10 00:11:49;;;;;;;2.30;0.70;;;;;;;11.01;100.00;99992.22;10500771;28;20040;-69
2022/11/10 00:17:10;;;;;;;3.75;0.70;;;;;;;11.05;100.00;99999.97;10500212;28;20048;-70
2022/11/10 00:22:31;;;;;;;1.60;0.75;;;;;;;11.11;100.00;100005.03;10500473;28;20440;-69
2022/11/10 00:27:51;;;;;;;1.15;0.60;;;;;;;11.14;100.00;100004.03;10484402;28;20036;-69
2022/11/10 00:33:12;;;;;;;1.98;0.70;;;;;;;11.13;100.00;100020.75;10499417;28;20076;-69
2022/11/10 00:38:32;;;;;;;1.80;0.60;;;;;;;10.94;100.00;100017.03;10499540;28;20119;-69
2022/11/10 00:43:53;;;;;;;1.40;0.70;;;;;;;10.78;100.00;100032.44;10498902;28;20045;-70
2022/11/10 00:49:13;;;;;;;3.28;0.80;;;;;;;10.90;100.00;100032.03;10498136;28;20493;-70
2022/11/10 00:54:34;;;;;;;1.35;0.63;;;;;;;10.88;100.00;100036.47;10499602;28;20049;-70
2022/11/10 00:59:54;;;;;;;2.53;1.05;;;;;;;10.95;100.00;100050.31;10498962;28;20052;-69
2022/11/10 01:05:14;;;;;;;2.92;0.60;;;;;;;10.99;100.00;100057.19;10499021;28;20135;-69
2022/11/10 01:10:35;;;;;;;1.60;0.88;;;;;;;11.03;100.00;100069.31;10497944;28;20498;-70
2022/11/10 01:15:55;;;;;;;2.47;0.80;;;;;;;11.00;100.00;100065.00;10498601;28;20056;-70
2022/11/10 01:21:17;;;;;;;2.13;0.70;;;;;;;10.90;100.00;100076.75;10483087;28;20429;-70
2022/11/10 01:26:37;;;;;;;4.53;0.80;;;;;;;10.91;100.00;100086.34;10498367;28;20505;-71
2022/11/10 01:31:57;;;;;;;2.90;0.90;;;;;;;10.96;100.00;100089.69;10497641;28;20084;-70
2022/11/10 01:37:17;;;;;;;3.17;0.88;;;;;;;10.91;100.00;100078.47;10498453;28;20048;-70
2022/11/10 01:42:50;;;;;;;2.15;0.90;;;;;;;10.73;100.00;100086.94;10497999;28;20123;-70
2022/11/10 01:48:18;;;;;;;2.40;1.08;;;;;;;10.83;100.00;100096.25;10497127;28;20033;-69
2022/11/10 01:53:42;;;;;;;1.52;0.80;;;;;;;11.04;100.00;100100.84;10497921;28;20037;-69
2022/11/10 01:59:07;;;;;;;2.55;0.82;;;;;;;10.95;100.00;100103.75;10486554;28;20041;-70
2022/11/10 02:04:29;;;;;;;1.55;0.70;;;;;;;10.89;100.00;100108.34;10505002;28;20041;-69
2022/11/10 02:09:49;;;;;;;1.08;0.73;;;;;;;10.86;100.00;100109.31;10504064;28;20044;-69
2022/11/10 02:15:13;;;;;;;3.08;1.17;;;;;;;10.90;99.67;100105.69;10504491;28;20127;-70
2022/11/10 02:20:33;;;;;;;4.10;1.10;;;;;;;10.82;99.77;100105.91;10504329;28;20036;-69
2022/11/10 02:25:53;;;;;;;2.30;0.88;;;;;;;10.52;100.00;100105.09;10504101;28;20044;-69
2022/11/10 02:31:14;;;;;;;1.75;0.82;;;;;;;10.32;100.00;100108.34;10504242;28;20040;-72
2022/11/10 02:36:34;;;;;;;4.03;1.00;;;;;;;10.15;100.00;100121.06;10504101;28;20052;-69
2022/11/10 02:41:54;;;;;;;4.82;1.17;;;;;;;10.08;100.00;100137.88;10503696;28;20040;-69
2022/11/10 02:47:14;;;;;;;1.20;0.77;;;;;;;10.13;100.00;100133.38;10503092;28;20036;-70
2022/11/10 02:52:35;;;;;;;3.17;0.90;;;;;;;10.22;100.00;100148.84;10503557;28;20045;-70
2022/11/10 02:57:55;;;;;;;1.33;0.73;;;;;;;10.34;99.94;100160.81;10502407;28;20045;-70
2022/11/10 03:03:16;;;;;;;3.17;1.40;;;;;;;10.10;100.00;100178.13;10501775;28;20052;-69
2022/11/10 03:08:37;;;;;;;5.55;1.00;;;;;;;10.02;100.00;100178.31;10501954;28;20049;-70
2022/11/10 03:13:58;;;;;;;2.22;1.00;;;;;;;9.91;100.00;100192.63;10502715;28;20048;-70
2022/11/10 03:19:21;;;;;;;3.70;1.00;;;;;;;9.83;100.00;100201.59;10501835;28;20049;-69
2022/11/10 03:24:41;;;;;;;2.85;1.08;;;;;;;9.92;100.00;100207.50;10502389;28;20072;-70
2022/11/10 03:30:03;;;;;;;2.58;0.82;;;;;;;9.92;100.00;100205.75;10501339;28;20048;-69
2022/11/10 03:35:23;;;;;;;3.50;1.30;;;;;;;9.96;99.89;100204.75;10501507;28;20052;-71
2022/11/10 03:40:43;;;;;;;2.88;1.10;;;;;;;9.95;99.24;100210.03;10501244;28;20040;-70
2022/11/10 03:46:24;;;;;;;7.65;0.80;;;;;;;9.90;99.96;100219.81;10501046;28;20045;-70
2022/11/10 03:51:44;;;;;;;4.07;1.00;;;;;;;9.95;99.34;100231.03;10501093;28;20044;-70
2022/11/10 03:57:04;;;;;;;3.00;0.93;;;;;;;9.91;98.44;100240.75;10500905;28;20040;-70
2022/11/10 04:02:25;;;;;;;2.35;0.95;;;;;;;9.94;97.58;100242.44;10500344;28;20052;-70
2022/11/10 04:19:03;;;;;;;2.67;0.80;;;;;;;10.00;94.07;100251.00;10500241;28;20044;-69
2022/11/10 04:24:23;;;;;;;2.80;1.05;;;;;;;10.07;93.05;100260.47;10500714;28;20501;-69
2022/11/10 04:29:43;;;;;;;3.63;1.10;;;;;;;9.82;93.76;100278.59;10499301;28;20045;-70
2022/11/10 04:35:04;;;;;;;4.47;1.08;;;;;;;9.79;93.49;100285.72;10484140;28;20053;-69
2022/11/10 04:40:24;;;;;;;3.88;1.10;;;;;;;9.92;92.04;100287.13;10498638;28;20044;-70
2022/11/10 04:45:45;;;;;;;2.78;0.80;;;;;;;9.85;92.72;100290.81;10499720;28;20478;-70
2022/11/10 04:51:06;;;;;;;3.50;0.88;;;;;;;9.91;92.13;100295.03;10490297;28;20068;-70
2022/11/10 04:56:26;;;;;;;4.82;1.02;;;;;;;9.71;93.00;100299.03;10498251;28;20088;-70
2022/11/10 05:01:47;;;;;;;2.85;1.20;;;;;;;9.87;91.67;100307.38;10498716;28;20056;-70
2022/11/10 05:07:07;;;;;;;2.42;1.02;;;;;;;9.85;92.12;100317.91;10483377;28;20052;-69
2022/11/10 05:12:27;;;;;;;3.58;1.02;;;;;;;9.85;92.38;100320.53;10498693;28;20143;-69
2022/11/10 05:17:53;;;;;;;4.30;1.05;;;;;;;9.78;94.19;100319.00;10498190;28;20123;-69
2022/11/10 05:28:51;;;;;;;2.50;0.90;;;;;;;10.16;91.78;100348.69;10498113;28;20120;-70
2022/11/10 05:34:13;;;;;;;4.78;1.20;;;;;;;10.22;91.04;100360.78;10503237;28;20049;-70
2022/11/10 05:39:33;;;;;;;3.85;1.58;;;;;;;10.21;91.39;100364.34;10490446;28;20048;-70
2022/11/10 05:44:53;;;;;;;2.00;1.17;;;;;;;10.11;91.22;100361.94;10506053;28;20040;-70
2022/11/10 05:50:14;;;;;;;3.20;1.40;;;;;;;10.13;91.05;100368.91;10505636;28;20076;-71
2022/11/10 05:55:35;;;;;;;4.85;1.50;;;;;;;9.91;91.74;100377.28;10506215;28;20040;-70
2022/11/10 06:00:56;;;;;;;9.05;2.80;;;;;;;9.82;91.99;100386.25;10520765;22;20049;-69
2022/11/10 06:06:16;;;;;;;5.50;1.65;;;;;;;9.93;90.50;100386.03;10420307;28;20128;-69
2022/11/10 06:11:37;;;;;;;12.23;1.38;;;;;;;9.93;89.87;100393.03;10421709;28;20041;-69
2022/11/10 06:16:57;;;;;;;8.82;1.30;;;;;;;9.87;89.76;100412.41;10421154;28;20053;-68
2022/11/10 06:22:18;;;;;;;3.08;0.95;;;;;;;9.69;91.61;100431.19;10420664;28;20514;-69
2022/11/10 06:27:42;;;;;;;3.55;1.05;;;;;;;9.65;92.55;100443.53;10420200;28;20049;-67
2022/11/10 06:33:03;;;;;;;3.72;1.30;;;;;;;9.51;93.08;100464.81;10421236;28;20054;-67
2022/11/10 06:38:23;;;;;;;7.43;1.70;;;;;;;9.63;92.58;100479.44;10419929;28;20049;-68
2022/11/10 06:43:43;;;;;;;5.35;1.20;;;;;;;9.61;92.69;100483.88;10420304;28;20132;-68
2022/11/10 06:49:03;;;;;;;5.30;1.25;;;;;;;9.68;93.10;100500.34;10420111;28;20046;-68
2022/11/10 06:54:24;;;;;;;7.18;1.42;;;;;;;9.93;90.71;100514.69;10420860;28;20057;-68
2022/11/10 06:59:44;;;;;;;3.65;1.33;;;;;;;9.99;89.82;100530.31;10420089;28;20411;-67
2022/11/10 07:05:05;;;;;;;6.97;1.48;;;;;;;10.11;88.96;100532.69;10404629;28;20049;-68
2022/11/10 07:10:25;;;;;;;6.63;1.30;;;;;;;10.19;88.40;100544.78;10418829;28;20478;-67
2022/11/10 07:15:45;;;;;;;3.17;1.30;;;;;;;10.25;87.33;100547.31;10418852;28;20045;-67
2022/11/10 07:21:06;;;;;;;3.88;1.20;;;;;;;10.39;86.49;100562.75;10418387;28;20050;-67
2022/11/10 07:26:26;;;;;;;2.67;0.82;;;;;;;10.49;85.75;100580.94;10419131;28;20418;-68
2022/11/10 07:31:46;;;;;;;2.97;1.20;;;;;;;10.50;86.24;100592.31;10418489;28;20038;-68
2022/11/10 07:37:08;;;;;;;4.75;1.02;;;;;;;10.61;85.13;100599.03;10418707;28;20045;-68
2022/11/10 07:42:28;;;;;;;3.63;1.00;;;;;;;10.61;85.52;100611.31;10417516;28;20077;-68
2022/11/10 07:47:49;;;;;;;4.43;1.02;;;;;;;10.76;83.79;100618.00;10417907;28;20124;-68
2022/11/10 07:53:14;;;;;;;3.40;1.00;;;;;;;10.80;83.26;100622.25;10417704;28;20057;-68
2022/11/10 07:58:35;;;;;;;5.72;1.20;;;;;;;10.88;83.75;100629.97;10418049;28;20033;-68
2022/11/10 08:03:55;;;;;;;7.07;1.33;;;;;;;10.84;83.77;100637.94;10417517;28;20410;-68
2022/11/10 08:09:15;;;;;;;4.30;1.35;;;;;;;10.93;83.85;100644.75;10417378;28;20073;-68
2022/11/10 08:14:36;;;;;;;3.60;0.90;;;;;;;11.06;81.39;100659.34;10417068;28;20042;-68
2022/11/10 08:19:56;;;;;;;4.22;1.30;;;;;;;11.11;81.42;100667.13;10417565;28;20073;-68
2022/11/10 08:25:16;;;;;;;4.85;1.35;;;;;;;11.18;81.93;100662.59;10416071;28;20120;-68
2022/11/10 08:30:39;;;;;;;5.15;1.00;;;;;;;11.19;82.61;100670.44;10419808;28;20041;-68
2022/11/10 08:36:01;;;;;;;7.63;1.30;;;;;;;11.31;81.23;100685.06;10403534;28;20076;-68
2022/11/10 08:41:21;;;;;;;5.25;1.27;;;;;;;11.45;81.55;100684.75;10410836;28;20073;-68
2022/11/10 08:46:43;;;;;;;14.63;1.58;;;;;;;11.58;80.42;100700.19;10415452;28;20053;-67
2022/11/10 08:52:03;;;;;;;7.45;2.05;;;;;;;11.54;80.30;100702.94;10415206;28;20041;-68
2022/11/10 08:57:23;;;;;;;6.95;1.40;;;;;;;11.71;78.01;100719.19;10410599;28;20438;-68
2022/11/10 09:02:43;;;;;;;4.43;1.13;;;;;;;11.66;79.74;100728.09;10400966;28;20049;-68
2022/11/10 09:08:05;;;;;;;4.85;1.00;;;;;;;11.82;78.96;100739.97;10420516;28;20065;-68
2022/11/10 09:13:25;;;;;;;5.50;1.40;;;;;;;12.05;77.42;100747.31;10423645;28;20041;-68
2022/11/10 09:18:49;;;;;;;6.18;1.38;;;;;;;12.34;76.03;100747.38;10423755;28;20041;-67
2022/11/10 09:24:10;;;;;;;3.30;1.10;;;;;;;12.18;76.38;100755.78;10407933;28;20131;-67
2022/11/10 09:29:30;;;;;;;3.80;1.23;;;;;;;12.00;76.84;100755.34;10423503;28;20049;-67
2022/11/10 09:34:50;;;;;;;5.95;1.65;;;;;;;11.93;76.96;100769.56;10422950;28;20147;-67
2022/11/10 09:40:21;;;;;;;5.13;1.27;;;;;;;11.97;78.21;100776.50;10422579;28;20053;-66
2022/11/10 09:45:45;;;;;;;5.38;1.02;;;;;;;12.14;76.49;100777.84;10423088;28;20231;-67
2022/11/10 09:51:11;;;;;;;7.10;1.70;;;;;;;12.02;77.13;100798.31;10422567;28;20487;-67
2022/11/10 09:56:36;;;;;;;5.85;1.60;;;;;;;12.01;77.60;100796.59;10406852;28;20084;-67
2022/11/10 10:02:18;;;;;;;4.85;1.50;;;;;;;12.17;76.84;100809.38;10406715;28;20124;-67
2022/11/10 10:08:09;;;;;;;6.75;1.60;;;;;;;12.28;76.24;100813.47;10421620;28;20454;-67
2022/11/10 10:13:57;;;;;;;4.78;1.33;;;;;;;12.28;76.31;100809.97;10421651;28;20041;-67
2022/11/10 10:19:40;;;;;;;4.05;1.20;;;;;;;12.60;73.67;100801.16;10420902;28;20085;-67
2022/11/10 10:25:08;;;;;;;5.22;1.20;;;;;;;12.53;73.39;100803.13;10421717;28;20049;-67
2022/11/10 10:30:28;;;;;;;4.55;1.17;;;;;;;12.73;73.17;100805.19;10415676;28;20037;-67
2022/11/10 10:35:49;;;;;;;3.28;1.05;;;;;;;13.03;70.21;100818.41;10419851;28;20049;-67
2022/11/10 10:41:18;;;;;;;5.68;1.27;;;;;;;12.91;69.91;100808.22;10419883;28;20061;-68
2022/11/10 10:46:44;;;;;;;5.75;1.48;;;;;;;12.99;69.89;100808.88;10421183;28;20045;-68
2022/11/10 10:52:16;;;;;;;3.90;0.98;;;;;;;13.59;67.43;100803.53;10420315;28;20479;-68
2022/11/10 10:57:54;;;;;;;5.25;1.48;;;;;;;13.93;66.07;100801.53;10419913;28;20073;-68
2022/11/10 11:03:27;;;;;;;3.90;1.35;;;;;;;14.31;64.01;100802.91;10420301;28;20419;-68
2022/11/10 11:08:55;;;;;;;4.45;1.20;;;;;;;14.21;64.99;100801.47;10419845;28;20080;-68
2022/11/10 11:14:24;;;;;;;5.68;1.25;;;;;;;14.89;60.66;100812.25;10421514;28;20050;-68
2022/11/10 11:19:45;;;;;;;4.18;1.05;;;;;;;15.01;61.26;100816.25;10419458;28;20073;-67
2022/11/10 11:25:11;;;;;;;5.45;1.17;;;;;;;14.91;60.48;100819.28;10419563;28;20132;-68
2022/11/10 11:30:56;;;;;;;6.78;1.60;;;;;;;14.73;61.80;100824.31;10418367;28;20042;-67
2022/11/10 11:36:54;;;;;;;4.95;1.40;;;;;;;14.05;63.02;100823.16;10418609;28;20050;-68
2022/11/10 11:42:45;;;;;;;7.63;1.60;;;;;;;13.73;64.90;100831.28;10403343;28;20054;-68
2022/11/10 11:48:32;;;;;;;5.53;1.30;;;;;;;13.97;64.07;100829.59;10418123;28;20128;-69
2022/11/10 11:54:14;;;;;;;3.85;1.17;;;;;;;13.85;63.96;100837.00;10418162;28;20124;-68
2022/11/10 11:59:39;;;;;;;4.45;1.30;;;;;;;14.02;65.34;100825.03;10418109;28;20053;-68
2022/11/10 12:05:18;;;;;;;3.92;1.20;;;;;;;14.17;65.18;100836.88;10474722;22;20425;-71
2022/11/10 12:10:51;;;;;;;3.95;1.15;;;;;;;14.34;65.35;100839.78;10500179;28;20429;-71
2022/11/10 12:16:28;;;;;;;9.32;1.60;;;;;;;14.14;65.43;100838.69;10501471;28;20053;-72
2022/11/10 12:21:54;;;;;;;2.97;1.20;;;;;;;14.11;63.98;100846.72;10500850;28;20044;-72
2022/11/10 12:27:23;;;;;;;6.18;1.55;;;;;;;13.96;63.72;100844.59;10499800;28;20505;-72
2022/11/10 12:32:55;;;;;;;5.28;1.25;;;;;;;13.79;64.70;100850.44;10499683;28;20040;-72
2022/11/10 12:38:21;;;;;;;5.10;1.42;;;;;;;13.61;64.52;100854.50;10492424;28;20045;-72
2022/11/10 12:44:11;;;;;;;4.23;1.53;;;;;;;13.53;65.35;100845.97;10484813;28;20044;-72
2022/11/10 12:49:37;;;;;;;2.92;1.05;;;;;;;13.54;66.82;100845.03;10479942;28;20045;-71
2022/11/10 12:54:59;;;;;;;4.35;1.30;;;;;;;13.70;66.78;100836.66;10499459;28;20072;-71
2022/11/10 13:00:26;;;;;;;5.47;1.23;;;;;;;13.62;65.96;100850.09;10499360;28;20052;-72
2022/11/10 13:05:55;;;;;;;3.55;0.90;;;;;;;13.52;67.73;100849.53;10498575;28;20040;-71
2022/11/10 13:11:15;;;;;;;6.53;1.38;;;;;;;13.51;66.50;100852.22;10498899;28;20049;-73
2022/11/10 13:16:39;;;;;;;6.05;1.27;;;;;;;13.50;66.55;100858.38;10499096;28;20498;-73
2022/11/10 13:21:59;;;;;;;8.85;1.83;;;;;;;13.33;68.01;100870.34;10499059;28;20044;-73
2022/11/10 13:27:31;;;;;;;4.60;1.25;;;;;;;13.44;66.71;100870.00;10483325;28;20048;-73
2022/11/10 13:32:52;;;;;;;4.75;1.20;;;;;;;13.53;65.63;100875.00;10500001;28;20040;-70
2022/11/10 13:38:43;;;;;;;4.25;1.10;;;;;;;13.54;65.31;100886.44;10498902;28;20053;-70
2022/11/10 13:44:24;;;;;;;3.03;1.10;;;;;;;13.65;65.28;100887.00;10499132;28;20056;-71
2022/11/10 13:49:59;;;;;;;4.22;1.80;;;;;;;13.75;65.40;100896.34;10496649;28;20049;-71
2022/11/10 13:55:44;;;;;;;3.60;1.30;;;;;;;13.77;65.39;100898.97;10502867;28;20083;-71
2022/11/10 14:01:14;;;;;;;3.33;1.40;;;;;;;13.71;65.56;100905.28;10506288;28;20044;-70
2022/11/10 14:06:45;;;;;;;5.40;1.27;;;;;;;13.57;66.47;100904.84;10488017;28;20116;-69
2022/11/10 14:12:53;;;;;;;2.97;0.98;;;;;;;13.59;67.16;100913.56;10498486;28;20041;-72
2022/11/10 14:18:29;;;;;;;5.60;1.38;;;;;;;13.46;67.24;100928.06;10525823;28;20510;-71
2022/11/10 14:24:23;;;;;;;6.65;1.30;;;;;;;13.21;69.18;100920.84;10504385;28;20132;-70
2022/11/10 14:29:43;;;;;;;5.28;1.67;;;;;;;13.14;70.00;100932.47;10492017;28;20052;-70
2022/11/10 14:35:04;;;;;;;5.28;1.40;;;;;;;13.17;69.67;100942.09;10525743;28;20049;-71
2022/11/10 14:40:25;;;;;;;16.20;14.75;;;;;;;13.08;70.24;100952.00;10497062;28;20044;-70
2022/11/10 14:45:51;;;;;;;4.43;2.13;;;;;;;12.91;71.23;100962.13;10502777;28;20135;-71
2022/11/10 14:51:17;;;;;;;4.45;1.40;;;;;;;12.74;72.68;100972.25;10530185;28;20032;-71
2022/11/10 14:56:41;;;;;;;11.80;2.28;;;;;;;12.40;74.09;100964.34;10545285;28;20048;-70
2022/11/10 15:02:01;;;;;;;3.10;1.13;;;;;;;12.40;74.26;100965.22;10526179;28;20040;-71
2022/11/10 15:07:21;;;;;;;6.13;2.33;;;;;;;12.27;75.13;100964.63;10494602;28;20048;-71
2022/11/10 15:12:42;;;;;;;4.60;1.65;;;;;;;12.27;74.99;100977.81;10501874;28;20044;-72
2022/11/10 15:18:04;;;;;;;5.05;3.13;;;;;;;12.16;75.11;100993.00;10502582;28;20052;-71
2022/11/10 15:23:35;;;;;;;5.43;2.25;;;;;;;11.90;76.89;100990.09;10454718;28;20048;-70
2022/11/10 15:28:55;;;;;;;9.00;2.88;;;;;;;12.08;75.26;101006.34;10445116;28;20048;-72
2022/11/10 15:34:40;;;;;;;5.50;1.95;;;;;;;11.85;76.47;101006.00;10460233;28;20057;-69
2022/11/10 15:40:30;;;;;;;4.57;1.38;;;;;;;11.78;76.71;101007.88;10497864;28;20045;-70
2022/11/10 15:46:01;;;;;;;7.65;1.45;;;;;;;11.83;76.27;101024.47;10501410;28;20496;-69
2022/11/10 15:51:21;;;;;;;4.35;1.83;;;;;;;11.83;75.80;101027.09;10500441;28;20452;-70
2022/11/10 15:56:45;;;;;;;5.68;1.85;;;;;;;11.68;76.81;101035.28;10500717;28;20044;-71
2022/11/10 16:02:19;;;;;;;3.95;1.40;;;;;;;11.61;77.47;101039.81;10500244;28;20044;-70
2022/11/10 16:07:39;;;;;;;5.03;1.67;;;;;;;11.74;75.66;101039.56;10501371;28;20467;-72
2022/11/10 16:13:00;;;;;;;3.67;1.83;;;;;;;11.66;76.05;101037.09;10499697;28;20069;-71
2022/11/10 16:18:22;;;;;;;4.22;2.17;;;;;;;11.47;76.81;101046.25;10498687;28;20048;-70
2022/11/10 16:23:44;;;;;;;5.72;1.85;;;;;;;11.37;76.97;101069.22;10500126;28;20052;-70
2022/11/10 16:29:10;;;;;;;7.45;2.03;;;;;;;11.29;76.51;101068.53;10499323;28;20048;-72
2022/11/10 16:34:30;;;;;;;6.22;1.92;;;;;;;11.18;77.19;101078.38;10494457;28;20057;-70
2022/11/10 16:39:50;;;;;;;5.18;2.17;;;;;;;10.95;78.34;101095.41;10499556;28;20506;-71
2022/11/10 16:45:22;;;;;;;6.28;2.10;;;;;;;10.85;78.87;101093.84;10485136;28;20072;-70
2022/11/10 16:50:44;;;;;;;6.55;2.50;;;;;;;11.00;77.33;101092.72;10499498;28;20111;-71
2022/11/10 16:56:04;;;;;;;5.82;2.33;;;;;;;11.03;76.29;101100.56;10499201;28;20048;-71
2022/11/10 17:01:27;;;;;;;5.60;2.28;;;;;;;10.89;77.01;101111.31;10498844;28;20041;-70
2022/11/10 17:06:48;;;;;;;7.00;1.90;;;;;;;10.84;77.14;101116.63;10498591;28;20433;-71
2022/11/10 17:12:14;;;;;;;5.60;2.47;;;;;;;10.69;77.57;101116.00;10498917;28;20406;-71
2022/11/10 17:17:35;;;;;;;11.43;2.20;;;;;;;10.57;78.47;101111.78;10498743;28;20135;-70
2022/11/10 17:22:55;;;;;;;8.88;1.80;;;;;;;10.56;78.03;101116.19;10497731;28;20048;-71
2022/11/10 17:28:17;;;;;;;7.43;2.80;;;;;;;10.40;78.77;101116.41;10501461;28;20040;-69
2022/11/10 17:33:37;;;;;;;3.95;1.98;;;;;;;10.48;78.13;101119.81;10510167;28;20040;-70
2022/11/10 17:38:57;;;;;;;6.05;2.67;;;;;;;10.40;78.57;101129.53;10504444;28;20115;-70
2022/11/10 17:44:18;;;;;;;6.30;2.58;;;;;;;10.41;78.52;101134.81;10504796;28;20049;-70
2022/11/10 17:49:38;;;;;;;5.95;2.10;;;;;;;10.25;79.40;101142.00;10489522;28;20044;-70
2022/11/10 17:54:58;;;;;;;8.35;2.60;;;;;;;10.35;78.56;101137.50;10494645;28;20135;-70
2022/11/10 18:00:19;;;;;;;7.13;2.85;;;;;;;10.21;79.32;101142.03;10528868;28;20043;-71
2022/11/10 18:05:40;;;;;;;6.38;2.22;;;;;;;10.16;79.81;101144.72;10512417;22;20045;-72
2022/11/10 18:11:00;;;;;;;6.63;2.55;;;;;;;10.02;80.81;101149.28;10423083;28;20490;-70
2022/11/10 18:16:21;;;;;;;7.25;2.85;;;;;;;9.97;80.91;101143.22;10440436;28;20507;-69
2022/11/10 18:21:41;;;;;;;6.43;2.78;;;;;;;10.06;80.34;101141.34;10417186;28;20124;-69
2022/11/10 18:27:01;;;;;;;6.93;2.28;;;;;;;9.96;80.61;101144.06;10419317;28;20045;-69
2022/11/10 18:32:22;;;;;;;5.38;2.20;;;;;;;9.95;80.71;101158.97;10420755;28;20125;-69
2022/11/10 18:37:42;;;;;;;6.65;1.83;;;;;;;9.99;80.36;101173.81;10420823;28;20045;-69
2022/11/10 18:43:02;;;;;;;7.25;2.35;;;;;;;10.07;79.25;101161.47;10419217;28;20495;-70
2022/11/10 18:48:26;;;;;;;5.60;1.60;;;;;;;10.19;78.62;101170.97;10418937;28;20053;-69
2022/11/10 18:53:53;;;;;;;6.35;2.13;;;;;;;10.18;78.21;101173.59;10419336;28;20490;-69
2022/11/10 18:59:14;;;;;;;6.40;2.03;;;;;;;10.26;77.67;101179.66;10420649;28;20045;-68
2022/11/10 19:04:34;;;;;;;5.90;1.75;;;;;;;10.26;77.75;101182.28;10419412;28;20053;-68
2022/11/10 19:09:54;;;;;;;4.88;1.98;;;;;;;10.26;77.31;101169.16;10418634;28;20042;-69
2022/11/10 19:15:15;;;;;;;9.25;2.17;;;;;;;10.19;78.04;101165.72;10418577;28;20049;-68
2022/11/10 19:20:35;;;;;;;6.60;1.98;;;;;;;10.27;77.42;101173.50;10420164;28;20049;-68
2022/11/10 19:26:00;;;;;;;5.47;1.80;;;;;;;10.26;77.53;101177.03;10419149;28;20041;-69
2022/11/10 19:31:22;;;;;;;6.22;2.17;;;;;;;10.21;78.15;101176.19;10419898;28;20120;-72
2022/11/10 19:36:44;;;;;;;6.07;2.92;;;;;;;10.18;78.20;101192.88;10418816;28;20054;-72
2022/11/10 19:42:04;;;;;;;8.80;2.28;;;;;;;10.30;77.95;101197.13;10419468;28;20041;-72
2022/11/10 19:47:25;;;;;;;8.90;2.20;;;;;;;10.21;78.45;101191.97;10419779;28;20527;-72
2022/11/10 19:52:45;;;;;;;5.47;2.78;;;;;;;10.07;79.62;101190.34;10418125;28;20045;-73
2022/11/10 19:58:05;;;;;;;7.72;2.72;;;;;;;10.10;80.00;101206.09;10418781;28;20077;-73
2022/11/10 20:03:28;;;;;;;7.95;2.10;;;;;;;10.01;80.90;101218.47;10419349;28;20049;-72
2022/11/10 20:08:49;;;;;;;7.88;2.53;;;;;;;9.76;82.91;101221.31;10417928;28;20079;-71
2022/11/10 20:14:09;;;;;;;6.28;2.28;;;;;;;9.88;82.34;101222.97;10418209;28;20041;-71
2022/11/10 20:19:30;;;;;;;5.82;2.15;;;;;;;9.49;84.21;101225.06;10417464;28;20049;-68
2022/11/10 20:24:50;;;;;;;3.85;2.25;;;;;;;9.35;85.51;101238.31;10417391;28;20049;-69
2022/11/10 20:30:11;;;;;;;6.15;2.30;;;;;;;9.13;87.31;101246.34;10417293;28;20125;-69
2022/11/10 20:35:37;;;;;;;5.55;2.42;;;;;;;8.89;89.53;101263.06;10417366;28;20049;-69
2022/11/10 20:41:03;;;;;;;8.50;3.03;;;;;;;8.90;89.50;101272.66;10416208;28;20046;-68
2022/11/10 20:46:23;;;;;;;7.53;2.58;;;;;;;8.74;90.41;101277.13;10416564;28;20403;-68
2022/11/10 20:52:03;;;;;;;6.45;2.92;;;;;;;8.61;91.49;101262.34;10416543;28;20523;-69
2022/11/10 20:57:24;;;;;;;7.78;3.90;;;;;;;8.59;91.68;101257.97;10416058;28;20057;-68
2022/11/10 21:02:44;;;;;;;6.47;3.28;;;;;;;8.57;93.00;101249.25;10421509;28;20080;-69
2022/11/10 21:08:04;;;;;;;6.25;2.55;;;;;;;8.43;93.74;101243.19;10429268;28;20053;-71
2022/11/10 21:13:26;;;;;;;7.50;2.80;;;;;;;8.43;92.93;101245.81;10429637;28;20507;-68
2022/11/10 21:18:46;;;;;;;6.30;3.00;;;;;;;8.24;94.11;101255.44;10429091;28;20046;-69
2022/11/10 21:24:08;;;;;;;11.80;3.25;;;;;;;8.31;94.60;101257.16;10429086;28;20045;-68
2022/11/10 21:29:28;;;;;;;6.90;2.67;;;;;;;7.95;95.56;101252.00;10429708;28;20046;-68
2022/11/10 21:34:48;;;;;;;9.38;3.17;;;;;;;7.79;96.06;101249.44;10429471;28;20049;-67
2022/11/10 21:40:10;;;;;;;10.27;4.15;;;;;;;7.61;98.37;101251.16;10428826;28;20515;-69
2022/11/10 21:45:30;;;;;;;5.55;3.08;;;;;;;7.42;98.91;101261.63;10429113;28;20049;-68
2022/11/10 21:50:50;;;;;;;5.70;3.65;;;;;;;7.38;100.00;101257.25;10428947;28;20053;-68
2022/11/10 21:56:11;;;;;;;12.68;4.05;;;;;;;7.23;100.00;101270.34;10430300;28;20061;-68
2022/11/10 22:01:31;;;;;;;5.70;3.42;;;;;;;7.32;100.00;101276.44;10427572;28;20391;-68
2022/11/10 22:29:33;;;;;;;7.60;4.13;;;;;;;6.98;100.00;101312.09;10421211;28;20515;-68
2022/11/10 22:34:53;;;;;;;8.93;3.65;;;;;;;7.11;100.00;101304.28;10420940;28;20076;-68
2022/11/10 22:45:53;;;;;;;6.32;2.35;;;;;;;7.30;100.00;101298.22;10420527;28;20491;-69
2022/11/10 22:51:13;;;;;;;6.90;3.55;;;;;;;7.51;100.00;101293.03;10405183;28;20080;-67
2022/11/10 22:56:33;;;;;;;8.15;3.08;;;;;;;7.58;100.00;101292.16;10419819;28;20057;-68
2022/11/10 23:01:54;;;;;;;5.95;2.25;;;;;;;7.56;100.00;101291.28;10420663;28;20403;-68
2022/11/10 23:07:15;;;;;;;11.05;2.80;;;;;;;7.81;100.00;101293.91;10419294;28;20045;-68
2022/11/10 23:12:35;;;;;;;7.80;2.45;;;;;;;7.81;99.76;101310.50;10418956;28;20455;-68
2022/11/10 23:17:55;;;;;;;5.18;2.85;;;;;;;7.65;100.00;101300.88;10418259;28;20054;-68
2022/11/10 23:23:20;;;;;;;8.30;2.28;;;;;;;7.96;98.64;101291.28;10420126;28;20037;-68
2022/11/10 23:28:41;;;;;;;4.90;2.50;;;;;;;7.76;98.79;101286.06;10418800;28;20076;-68
2022/11/10 23:34:02;;;;;;;5.90;2.40;;;;;;;7.63;98.73;101294.78;10417913;28;20045;-68
2022/11/10 23:39:22;;;;;;;3.95;2.00;;;;;;;7.52;98.99;101300.00;10418061;28;20045;-68
2022/11/10 23:44:43;;;;;;;6.13;3.33;;;;;;;7.26;100.00;101297.38;10418598;28;20419;-68
2022/11/10 23:50:04;;;;;;;9.35;2.92;;;;;;;7.26;100.00;101306.94;10418703;28;20042;-68
2022/11/10 23:55:24;;;;;;;4.25;2.55;;;;;;;6.95;100.00;101314.72;10418187;28;20128;-70
